Terminal Aerodrome Forecast
Issued by NWS Caribou, ME

Home | Current Version | Previous Version | Text Only | Print | Product List | Glossary On
Versions: 1 2 3 4 5 6 7 8 9 10 11 12 13 14 15 16 17
000
FTUS41 KCAR 291747
TAFCAR
TAF
KCAR 291747Z 2918/3018 VRB03KT P6SM FEW040
     FM300600 18007KT P6SM SCT010
     FM300900 19007KT 3SM BR BKN007
     FM301200 19010KT P6SM SCT007 BKN200=

USA.gov is the U.S. government's official web portal to all federal, state and local government web resources and services.